Decoded Metar for EVRA (RIGA AIRPORT in LATVIA) (IATA:N/A) | Meteo·Mobile Aviation Weather
aviador You're here:

EVRA Decoded Metar

RIGA AIRPORT in LATVIA
Report Time2018-08-20 13:50:00
UTC Time2018-08-20 14:14:29
Flight Rules vfr VFR
Wind210° at 06 kt
W.Decomp.*RWY 18: 5.5 kt HW 2.3 kt RCW
W.Rank210° ranks 2
Current wind is below 210° avg. (6.6)
Visibility9999 m
Phenomena:N/A
Clouds:Few CB 031 Hf
Expected CloudBase > 3,600 ft AGL from Temp-Dew spread
CeilingNone
Temp25°C (ISA +10)
Dew Point16°C (57% RH)
AAT24.8°C
QNH1006 hPa
Density Alt1,677 ft
Elevation33 ft
Report Wrong Elevation
Raw Report
EVRA 201350Z 21006KT 180V240 9999 FEW031CB 25/16 Q1006 NOSIG=

Extra information for EVRA:More info

Metar Taf Metar & Taf Last 4 Metars F.Rules Stats Wind Profile Meteogram Temp Stats Airport Information Weather charts Add Link Nearby VenuesMetar ALERT Operation Metar Decoded Social comments